Time;durP1;ratioP1;P1;durP2;ratioP2;P2;SDS_P1;SDS_P2;PMS_P1;PMS_P2;Temp;Humidity;BMP_temperature;BMP_pressure;BME280_temperature;BME280_humidity;BME280_pressure;Samples;Min_cycle;Max_cycle;Signal;HPM_P1;HPM_P2
2023/06/11 00:01:55;;;;;;;10.00;6.45;;;;;;;22.44;52.22;101358.78;5024352;28;20022;-82
2023/06/11 00:04:25;;;;;;;8.63;6.22;;;;;;;22.41;52.08;101364.53;5032795;28;20369;-81
2023/06/11 00:06:53;;;;;;;8.73;6.07;;;;;;;22.36;52.45;101362.38;5032360;28;20139;-81
2023/06/11 00:09:19;;;;;;;9.15;6.60;;;;;;;22.32;52.43;101363.78;5034875;28;20028;-81
2023/06/11 00:11:44;;;;;;;9.18;6.38;;;;;;;22.28;52.88;101360.59;5028524;28;20555;-81
2023/06/11 00:14:10;;;;;;;7.50;5.93;;;;;;;22.22;53.42;101347.75;5028307;28;20029;-82
2023/06/11 00:16:36;;;;;;;11.23;6.72;;;;;;;22.23;53.54;101360.25;5028453;28;20057;-82
2023/06/11 00:19:03;;;;;;;6.78;6.00;;;;;;;22.15;53.78;101350.34;5033831;28;20084;-82
2023/06/11 00:21:29;;;;;;;6.88;6.10;;;;;;;22.14;53.98;101345.94;5033277;28;20053;-81
2023/06/11 00:23:57;;;;;;;7.90;6.63;;;;;;;22.15;53.97;101357.63;5034634;28;20103;-81
2023/06/11 00:26:22;;;;;;;10.30;6.67;;;;;;;22.09;54.06;101361.06;5033681;28;20052;-81
2023/06/11 00:28:48;;;;;;;8.65;6.70;;;;;;;22.08;54.13;101352.13;5026559;28;20040;-81
2023/06/11 00:31:13;;;;;;;9.88;6.35;;;;;;;22.01;54.35;101348.44;5033983;28;20099;-82
2023/06/11 00:33:38;;;;;;;10.70;7.03;;;;;;;22.01;54.68;101351.13;5024969;28;20052;-81
2023/06/11 00:36:04;;;;;;;9.98;7.03;;;;;;;21.94;54.65;101344.78;5027501;28;20045;-81
2023/06/11 00:38:30;;;;;;;11.25;7.38;;;;;;;21.87;55.24;101349.22;5026645;28;20159;-81
2023/06/11 00:40:56;;;;;;;8.55;6.63;;;;;;;21.87;55.24;101354.63;5030273;28;20131;-82
2023/06/11 00:43:23;;;;;;;11.43;6.93;;;;;;;21.85;55.42;101353.94;5033274;28;20104;-81
2023/06/11 00:45:50;;;;;;;9.25;7.32;;;;;;;21.81;55.65;101348.91;5034998;28;20418;-81
2023/06/11 00:48:16;;;;;;;10.32;7.20;;;;;;;21.79;55.62;101347.41;5037053;28;20087;-80
2023/06/11 00:50:48;;;;;;;7.40;6.65;;;;;;;21.78;55.43;101356.53;5035041;28;20387;-81
2023/06/11 00:53:14;;;;;;;8.77;6.28;;;;;;;21.71;55.95;101352.88;5032952;28;20033;-81
2023/06/11 00:55:40;;;;;;;9.27;7.20;;;;;;;21.60;56.58;101344.16;5031035;28;20022;-82
2023/06/11 00:58:13;;;;;;;8.25;6.32;;;;;;;21.64;56.22;101354.63;5034159;28;20041;-81
2023/06/11 01:00:41;;;;;;;8.30;6.75;;;;;;;21.58;56.33;101357.00;5038964;28;20040;-81
2023/06/11 01:03:10;;;;;;;9.98;7.22;;;;;;;21.55;56.75;101351.97;5036609;28;20026;-81
2023/06/11 01:05:43;;;;;;;11.27;7.65;;;;;;;21.54;56.89;101358.38;5034507;28;20488;-81
2023/06/11 01:08:12;;;;;;;10.18;7.25;;;;;;;21.48;57.34;101353.66;5043347;28;20553;-81
2023/06/11 01:10:38;;;;;;;9.43;7.00;;;;;;;21.47;57.28;101349.28;5035720;28;20022;-81
2023/06/11 01:13:04;;;;;;;8.27;6.72;;;;;;;21.41;57.98;101349.97;5040693;28;20468;-82
2023/06/11 01:15:29;;;;;;;8.70;6.75;;;;;;;21.43;57.77;101356.03;5047178;28;20038;-82
2023/06/11 01:18:22;;;;;;;8.48;6.95;;;;;;;21.44;56.34;101355.84;5030371;28;20038;-82
2023/06/11 01:21:04;;;;;;;12.68;6.93;;;;;;;21.33;57.36;101347.28;5035508;28;20042;-82
2023/06/11 01:23:41;;;;;;;9.73;7.40;;;;;;;21.31;57.48;101352.03;5030485;28;20049;-81
2023/06/11 01:26:25;;;;;;;9.90;7.22;;;;;;;21.26;57.48;101357.97;5029407;28;20025;-81
2023/06/11 01:28:54;;;;;;;11.48;7.55;;;;;;;21.21;58.26;101358.47;5032926;28;20037;-81
2023/06/11 01:31:21;;;;;;;13.98;8.02;;;;;;;21.16;58.82;101354.63;5026328;28;20028;-81
2023/06/11 01:33:46;;;;;;;11.05;7.50;;;;;;;21.14;58.71;101357.50;5030412;28;20056;-81
2023/06/11 01:36:14;;;;;;;11.85;7.25;;;;;;;21.07;59.26;101346.56;5034559;28;20468;-81
2023/06/11 01:38:42;;;;;;;11.40;7.60;;;;;;;21.04;59.47;101357.72;5027146;28;20112;-81
2023/06/11 01:41:09;;;;;;;10.23;7.40;;;;;;;21.04;59.50;101359.56;5031592;28;20075;-81
2023/06/11 01:43:34;;;;;;;12.18;8.00;;;;;;;21.00;59.55;101356.38;5035098;28;20036;-80
2023/06/11 01:46:00;;;;;;;10.93;7.03;;;;;;;20.98;59.81;101355.69;5036453;28;20026;-81
2023/06/11 01:48:26;;;;;;;8.35;7.50;;;;;;;20.91;60.28;101352.00;5035267;28;20029;-82
2023/06/11 01:50:51;;;;;;;13.57;8.35;;;;;;;20.92;60.17;101358.25;5036050;28;20033;-80
2023/06/11 01:53:16;;;;;;;10.57;8.33;;;;;;;20.86;60.61;101349.81;5033935;28;20378;-81
2023/06/11 01:55:42;;;;;;;8.88;7.85;;;;;;;20.83;60.91;101360.13;5034258;28;20280;-81
2023/06/11 01:58:08;;;;;;;12.25;8.20;;;;;;;20.79;61.08;101356.94;5028705;28;20022;-81
2023/06/11 02:00:33;;;;;;;10.98;7.93;;;;;;;20.77;61.17;101358.97;5044482;28;20026;-81
2023/06/11 02:03:01;;;;;;;12.47;7.90;;;;;;;20.78;60.61;101365.22;5049806;28;20056;-83
2023/06/11 02:05:27;;;;;;;12.83;7.83;;;;;;;20.72;61.29;101369.44;5035165;28;20281;-82
2023/06/11 02:07:52;;;;;;;11.70;8.48;;;;;;;20.65;61.57;101354.94;5038119;28;20091;-81
2023/06/11 02:10:17;;;;;;;10.67;7.80;;;;;;;20.63;61.59;101362.38;5037398;28;20029;-82
2023/06/11 02:12:43;;;;;;;11.53;8.50;;;;;;;20.57;61.99;101361.19;5031380;28;20299;-81
2023/06/11 02:15:08;;;;;;;11.40;8.20;;;;;;;20.57;61.94;101369.28;5039128;28;20301;-81
2023/06/11 02:17:34;;;;;;;10.60;8.27;;;;;;;20.53;62.16;101362.50;5037896;28;20284;-82
2023/06/11 02:19:59;;;;;;;11.18;8.70;;;;;;;20.51;62.28;101367.25;5032445;28;20061;-82
2023/06/11 02:22:24;;;;;;;11.25;8.10;;;;;;;20.47;62.05;101355.97;5037995;28;20104;-82
2023/06/11 02:24:50;;;;;;;10.10;8.73;;;;;;;20.46;62.81;101362.34;5034353;28;20041;-82
2023/06/11 02:27:15;;;;;;;12.20;8.68;;;;;;;20.46;62.79;101367.75;5031328;28;20028;-81
2023/06/11 02:29:41;;;;;;;11.17;8.73;;;;;;;20.41;63.04;101362.03;5033813;28;20085;-81
2023/06/11 02:32:07;;;;;;;10.50;8.80;;;;;;;20.37;62.95;101352.59;5032498;28;20701;-81
2023/06/11 02:34:32;;;;;;;15.23;9.07;;;;;;;20.34;63.16;101359.16;5039539;28;20496;-82
2023/06/11 02:36:57;;;;;;;11.20;8.95;;;;;;;20.31;63.38;101364.06;5034057;28;20523;-82
2023/06/11 02:39:23;;;;;;;9.50;8.33;;;;;;;20.30;63.20;101357.81;5037591;28;20021;-82
2023/06/11 02:41:48;;;;;;;11.13;8.20;;;;;;;20.28;63.25;101354.47;5039746;28;20786;-81
2023/06/11 02:44:13;;;;;;;14.00;8.75;;;;;;;20.30;63.47;101362.34;5034642;28;20299;-81
2023/06/11 02:46:39;;;;;;;9.98;8.48;;;;;;;20.24;63.09;101352.25;5038568;28;20452;-82
2023/06/11 02:49:04;;;;;;;10.90;8.73;;;;;;;20.23;63.80;101358.66;5031060;28;20231;-82
2023/06/11 02:51:30;;;;;;;14.95;9.23;;;;;;;20.20;64.32;101361.69;5033564;28;20025;-82
2023/06/11 02:53:55;;;;;;;9.43;8.53;;;;;;;20.22;63.41;101367.78;5035636;28;20503;-82
2023/06/11 02:56:20;;;;;;;10.20;9.07;;;;;;;20.21;63.64;101363.38;5035232;28;20321;-82
2023/06/11 02:58:47;;;;;;;12.40;9.43;;;;;;;20.19;63.70;101366.25;5039237;28;20276;-82
2023/06/11 03:01:12;;;;;;;10.48;8.80;;;;;;;20.19;63.78;101365.41;5047078;28;20372;-82
2023/06/11 03:03:38;;;;;;;12.10;9.90;;;;;;;20.14;64.19;101374.00;5048306;28;20033;-82
2023/06/11 03:06:03;;;;;;;10.90;8.83;;;;;;;20.07;64.69;101362.22;5046773;28;20030;-82
2023/06/11 03:08:28;;;;;;;11.77;9.27;;;;;;;20.04;64.86;101368.75;5035658;28;20375;-82
2023/06/11 03:10:54;;;;;;;12.30;9.40;;;;;;;20.00;64.86;101363.88;5034612;28;20107;-82
2023/06/11 03:13:20;;;;;;;13.13;10.20;;;;;;;19.99;64.93;101360.34;5032176;28;20287;-81
2023/06/11 03:15:45;;;;;;;12.82;9.57;;;;;;;19.92;64.97;101359.31;5038359;28;20025;-82
2023/06/11 03:18:10;;;;;;;10.70;9.68;;;;;;;19.94;64.67;101365.38;5039614;28;20032;-82
2023/06/11 03:20:35;;;;;;;12.33;9.70;;;;;;;19.89;64.95;101359.66;5047144;28;20046;-82
2023/06/11 03:23:02;;;;;;;11.82;9.85;;;;;;;19.91;65.52;101368.41;5048940;28;20738;-82
2023/06/11 03:25:27;;;;;;;13.07;9.50;;;;;;;19.89;65.38;101370.44;5052083;28;20029;-82
2023/06/11 03:27:53;;;;;;;13.67;10.20;;;;;;;19.88;65.35;101369.56;5049041;28;20032;-82
2023/06/11 03:30:18;;;;;;;10.80;9.73;;;;;;;19.86;64.91;101365.38;5051808;28;20276;-81
2023/06/11 03:32:43;;;;;;;15.07;10.67;;;;;;;19.81;65.91;101375.81;5040123;28;20377;-81
2023/06/11 03:35:08;;;;;;;11.43;10.25;;;;;;;19.76;66.26;101370.91;5035229;28;20301;-81
2023/06/11 03:37:34;;;;;;;15.15;11.07;;;;;;;19.75;66.05;101375.47;5041375;28;20025;-81
2023/06/11 03:39:59;;;;;;;11.32;10.23;;;;;;;19.72;66.98;101372.22;5044424;28;20105;-81
2023/06/11 03:42:25;;;;;;;14.38;10.13;;;;;;;19.70;67.11;101371.53;5049798;28;20041;-82
2023/06/11 03:44:50;;;;;;;12.70;10.32;;;;;;;19.62;67.26;101368.81;5050075;28;20021;-81
2023/06/11 03:47:15;;;;;;;14.25;10.52;;;;;;;19.63;67.29;101374.03;5036593;28;20045;-82
2023/06/11 03:49:41;;;;;;;14.70;10.55;;;;;;;19.59;67.38;101372.69;5047806;28;20026;-81
2023/06/11 03:52:07;;;;;;;12.98;10.90;;;;;;;19.56;67.74;101381.94;5048320;28;20076;-82
2023/06/11 03:54:32;;;;;;;13.10;10.95;;;;;;;19.53;67.19;101381.41;5048265;28;20025;-82
2023/06/11 03:56:58;;;;;;;16.60;11.20;;;;;;;19.53;67.02;101376.03;5032166;28;20117;-81
2023/06/11 03:59:23;;;;;;;13.77;11.55;;;;;;;19.46;67.79;101375.00;5044145;28;20067;-80
2023/06/11 04:01:48;;;;;;;12.57;11.10;;;;;;;19.48;67.81;101376.50;5046941;28;20026;-81
2023/06/11 04:04:13;;;;;;;14.32;11.07;;;;;;;19.44;68.13;101380.56;5044457;28;20025;-80
2023/06/11 04:06:40;;;;;;;14.00;11.13;;;;;;;19.44;68.23;101385.13;5035950;28;20030;-82
2023/06/11 04:09:08;;;;;;;12.82;10.95;;;;;;;19.41;68.40;101383.56;5030104;28;20093;-82
2023/06/11 04:11:34;;;;;;;13.10;11.27;;;;;;;19.44;68.83;101383.25;5035477;28;20100;-82
2023/06/11 04:13:59;;;;;;;14.20;11.40;;;;;;;19.46;68.26;101385.78;5030967;28;20057;-81
2023/06/11 04:16:25;;;;;;;12.63;11.35;;;;;;;19.43;68.68;101389.63;5038423;28;20491;-81
2023/06/11 04:18:50;;;;;;;14.90;12.27;;;;;;;19.37;69.29;101385.75;5037508;28;20026;-82
2023/06/11 04:21:16;;;;;;;14.50;12.00;;;;;;;19.38;69.03;101390.16;5037648;28;20057;-82
2023/06/11 04:23:41;;;;;;;16.40;11.98;;;;;;;19.39;69.21;101386.44;5037429;28;20017;-81
2023/06/11 04:26:10;;;;;;;13.57;11.88;;;;;;;19.40;69.55;101392.66;5032762;28;20026;-82
2023/06/11 04:28:38;;;;;;;15.95;12.40;;;;;;;19.40;69.02;101393.50;5039489;28;20418;-82
2023/06/11 04:31:04;;;;;;;14.50;12.20;;;;;;;19.43;69.87;101397.72;5045770;28;20030;-82
2023/06/11 04:33:32;;;;;;;14.60;12.00;;;;;;;19.46;69.02;101394.69;5039647;28;20490;-81
2023/06/11 04:36:00;;;;;;;16.87;13.07;;;;;;;19.45;69.74;101386.78;5047258;28;20040;-81
2023/06/11 04:38:28;;;;;;;14.30;12.80;;;;;;;19.50;69.41;101395.22;5045027;28;20030;-81
2023/06/11 04:40:54;;;;;;;14.07;12.57;;;;;;;19.51;69.43;101388.84;5041506;28;20017;-81
2023/06/11 04:43:22;;;;;;;17.15;13.07;;;;;;;19.58;69.78;101389.84;5046168;28;20029;-81
2023/06/11 04:45:49;;;;;;;18.85;13.50;;;;;;;19.60;69.46;101390.53;5042302;28;20092;-81
2023/06/11 04:48:21;;;;;;;14.23;12.52;;;;;;;19.65;69.29;101392.75;5039421;28;20025;-81
2023/06/11 04:50:48;;;;;;;14.05;12.60;;;;;;;19.74;68.95;101392.59;5034820;28;20025;-82
2023/06/11 04:53:21;;;;;;;14.65;12.77;;;;;;;19.83;69.04;101385.41;5034827;28;20360;-82
2023/06/11 04:55:49;;;;;;;18.83;13.65;;;;;;;19.86;69.11;101376.16;5034512;28;20364;-82
2023/06/11 04:58:15;;;;;;;16.40;14.20;;;;;;;20.03;68.01;101385.09;5032236;28;20100;-81
2023/06/11 05:00:40;;;;;;;15.25;13.57;;;;;;;20.11;68.29;101395.91;5021420;28;20057;-81
2023/06/11 05:03:06;;;;;;;16.30;14.00;;;;;;;20.23;68.09;101396.41;5034352;28;20037;-81
2023/06/11 05:05:32;;;;;;;14.93;13.38;;;;;;;20.29;67.60;101399.28;5034642;28;20269;-81
2023/06/11 05:07:57;;;;;;;14.40;12.87;;;;;;;20.37;67.37;101401.16;5030549;28;20184;-80
2023/06/11 05:10:22;;;;;;;18.40;13.37;;;;;;;20.49;67.34;101402.50;5034621;28;20762;-81
2023/06/11 05:12:47;;;;;;;15.50;12.97;;;;;;;20.55;66.77;101392.91;5031318;28;20284;-82
2023/06/11 05:15:13;;;;;;;16.13;13.55;;;;;;;20.65;66.43;101404.38;5030933;28;20305;-81
2023/06/11 05:17:39;;;;;;;14.52;13.02;;;;;;;20.73;66.36;101400.81;5033626;28;20487;-82
2023/06/11 05:20:05;;;;;;;14.82;13.25;;;;;;;20.74;65.49;101405.22;5039017;28;20029;-81
2023/06/11 05:22:30;;;;;;;18.88;13.20;;;;;;;20.83;65.98;101403.34;5041062;28;20388;-82
2023/06/11 05:24:56;;;;;;;13.55;12.15;;;;;;;20.92;65.55;101410.41;5037040;28;20025;-82
2023/06/11 05:27:23;;;;;;;16.95;12.77;;;;;;;20.97;65.40;101410.75;5037069;28;20036;-81
2023/06/11 05:29:48;;;;;;;16.67;12.60;;;;;;;21.05;64.75;101390.97;5053855;28;20081;-81
2023/06/11 05:32:14;;;;;;;15.15;12.75;;;;;;;21.21;63.88;101401.72;5051718;28;20025;-81
2023/06/11 05:34:40;;;;;;;15.05;12.27;;;;;;;21.30;63.45;101410.66;5037157;28;20018;-81
2023/06/11 05:37:06;;;;;;;12.75;11.45;;;;;;;21.46;63.05;101398.91;5036310;28;20099;-82
2023/06/11 05:39:31;;;;;;;16.23;11.68;;;;;;;21.69;61.54;101411.69;5028072;28;20060;-81
2023/06/11 05:41:57;;;;;;;14.23;10.93;;;;;;;21.93;60.63;101414.25;5039982;28;20022;-82
2023/06/11 05:44:22;;;;;;;13.20;11.80;;;;;;;22.02;60.90;101409.63;5034672;28;20539;-81
2023/06/11 05:46:47;;;;;;;12.80;10.65;;;;;;;22.25;60.13;101404.22;5035421;28;20038;-82
2023/06/11 05:49:13;;;;;;;12.20;10.52;;;;;;;22.37;59.49;101409.25;5039166;28;20025;-82
2023/06/11 05:51:39;;;;;;;14.20;10.02;;;;;;;22.57;59.16;101406.88;5038293;28;20045;-81
2023/06/11 05:54:04;;;;;;;11.13;9.90;;;;;;;22.79;58.15;101399.72;5038693;28;20030;-81
2023/06/11 05:56:30;;;;;;;14.15;9.57;;;;;;;23.00;58.15;101402.53;5038340;28;20036;-81
2023/06/11 05:58:55;;;;;;;11.25;9.13;;;;;;;23.21;56.53;101398.28;5038710;28;20040;-81
2023/06/11 06:01:21;;;;;;;12.27;9.48;;;;;;;23.39;56.05;101395.19;5035125;28;20029;-81
2023/06/11 06:03:47;;;;;;;9.00;8.07;;;;;;;23.58;55.79;101396.44;5038285;28;20032;-81
2023/06/11 06:06:12;;;;;;;12.85;7.78;;;;;;;23.86;54.61;101402.00;5029714;28;20065;-81
2023/06/11 06:08:38;;;;;;;11.70;7.95;;;;;;;23.95;54.22;101400.03;5035291;28;20025;-82
2023/06/11 06:11:03;;;;;;;11.05;7.70;;;;;;;24.22;53.69;101408.44;5035932;28;20022;-82
2023/06/11 06:13:28;;;;;;;9.95;6.90;;;;;;;24.54;53.75;101405.16;5024822;28;20033;-81
2023/06/11 06:15:54;;;;;;;10.82;6.95;;;;;;;24.75;51.73;101408.94;5041770;28;20124;-81
2023/06/11 06:18:20;;;;;;;8.90;7.40;;;;;;;24.76;51.13;101405.16;5038233;28;20033;-81
2023/06/11 06:20:46;;;;;;;8.13;6.50;;;;;;;24.99;50.91;101409.50;5029833;28;20054;-81
2023/06/11 06:23:11;;;;;;;11.27;6.63;;;;;;;25.06;50.24;101413.09;5035640;28;20018;-82
2023/06/11 06:25:37;;;;;;;7.03;6.32;;;;;;;25.25;49.52;101411.53;5038201;28;20083;-81
2023/06/11 06:28:04;;;;;;;7.32;6.60;;;;;;;25.45;50.17;101419.81;5044612;28;20029;-81
2023/06/11 06:30:30;;;;;;;8.60;7.20;;;;;;;25.55;48.64;101409.41;5036911;28;20026;-82
2023/06/11 06:32:56;;;;;;;6.82;6.22;;;;;;;25.74;48.84;101417.84;5035910;28;20037;-81
2023/06/11 06:35:21;;;;;;;8.15;6.28;;;;;;;25.93;48.31;101411.63;5034600;28;20025;-82
2023/06/11 06:37:46;;;;;;;9.20;6.72;;;;;;;26.14;47.88;101412.53;5034924;28;20029;-82
2023/06/11 06:40:12;;;;;;;7.50;6.80;;;;;;;26.38;46.60;101421.97;5037043;28;20049;-82
2023/06/11 06:42:38;;;;;;;6.65;6.03;;;;;;;26.59;46.72;101410.84;5036782;28;20022;-83
2023/06/11 06:45:04;;;;;;;8.77;6.20;;;;;;;26.80;46.25;101410.91;5036906;28;20471;-82
2023/06/11 06:47:29;;;;;;;9.18;6.43;;;;;;;26.91;45.70;101411.09;5029254;28;20021;-83
2023/06/11 06:49:54;;;;;;;8.13;6.32;;;;;;;27.13;44.88;101419.84;5031771;28;20367;-82
2023/06/11 06:52:20;;;;;;;7.77;6.17;;;;;;;27.27;44.29;101411.63;5036853;28;20733;-82
2023/06/11 06:54:45;;;;;;;8.23;5.73;;;;;;;27.40;43.78;101417.06;5035798;28;20307;-82
2023/06/11 06:57:10;;;;;;;7.83;5.90;;;;;;;27.53;43.45;101412.59;5043036;28;20288;-81
2023/06/11 06:59:36;;;;;;;7.43;5.72;;;;;;;27.76;43.99;101410.19;5034083;28;20859;-82
2023/06/11 07:02:01;;;;;;;8.65;5.55;;;;;;;27.88;42.66;101402.97;5034420;28;20091;-83
2023/06/11 07:04:27;;;;;;;7.05;5.45;;;;;;;28.14;43.08;101411.22;5035650;28;20411;-82
2023/06/11 07:06:53;;;;;;;6.57;5.15;;;;;;;28.31;41.74;101412.38;5037185;28;20124;-82
2023/06/11 07:09:18;;;;;;;6.30;5.55;;;;;;;28.27;41.78;101416.59;5032948;28;20033;-82
2023/06/11 07:11:43;;;;;;;7.75;5.80;;;;;;;28.43;41.68;101410.59;5030189;28;20044;-82
2023/06/11 07:14:09;;;;;;;5.70;5.20;;;;;;;28.68;42.72;101407.03;5037372;28;20029;-81
2023/06/11 07:16:34;;;;;;;6.13;5.18;;;;;;;28.74;40.95;101413.50;5036923;28;20288;-82
2023/06/11 07:19:00;;;;;;;6.47;5.68;;;;;;;28.95;40.73;101415.81;5037703;28;20029;-82
2023/06/11 07:21:25;;;;;;;7.70;5.43;;;;;;;29.09;40.46;101416.50;5035754;28;20057;-82
2023/06/11 07:23:50;;;;;;;8.97;5.73;;;;;;;29.20;39.38;101409.47;5035990;28;20276;-82
2023/06/11 07:26:17;;;;;;;6.80;5.40;;;;;;;29.40;39.39;101408.41;5029556;28;20283;-82
2023/06/11 07:28:43;;;;;;;7.53;5.30;;;;;;;29.58;39.12;101421.22;5021183;28;20075;-83
2023/06/11 07:31:08;;;;;;;7.57;5.50;;;;;;;29.60;38.70;101408.97;5028418;28;20034;-82
2023/06/11 07:33:33;;;;;;;6.57;5.50;;;;;;;29.62;38.15;101415.03;5036667;28;20790;-82
2023/06/11 07:35:59;;;;;;;7.15;5.15;;;;;;;29.43;38.53;101417.00;5034560;28;20022;-82
2023/06/11 07:38:24;;;;;;;6.18;4.97;;;;;;;29.69;38.83;101423.16;5029412;28;20029;-82
2023/06/11 07:40:50;;;;;;;10.35;5.30;;;;;;;30.00;38.06;101421.31;5031766;28;20025;-82
2023/06/11 07:43:15;;;;;;;6.73;5.07;;;;;;;29.95;37.39;101400.09;5040890;28;20029;-82
2023/06/11 07:45:40;;;;;;;6.60;5.10;;;;;;;30.32;38.22;101415.53;5036788;28;20026;-82
2023/06/11 07:48:06;;;;;;;5.80;4.77;;;;;;;30.63;37.52;101419.91;5040027;28;20440;-82
2023/06/11 07:50:31;;;;;;;5.55;5.00;;;;;;;30.83;37.09;101416.81;5036911;28;20292;-82
2023/06/11 07:52:56;;;;;;;6.57;5.10;;;;;;;31.10;36.17;101421.81;5038655;28;20063;-82
2023/06/11 07:55:22;;;;;;;6.93;4.90;;;;;;;31.21;36.02;101420.97;5039660;28;20037;-82
2023/06/11 07:57:47;;;;;;;7.90;5.28;;;;;;;31.30;35.72;101416.75;5029114;28;20030;-82
2023/06/11 08:00:15;;;;;;;6.53;5.15;;;;;;;31.50;35.10;101418.25;5030428;28;20595;-81
2023/06/11 08:02:41;;;;;;;6.43;5.03;;;;;;;31.56;35.19;101421.97;5039201;28;20053;-82
2023/06/11 08:05:08;;;;;;;8.05;5.47;;;;;;;31.97;34.16;101411.75;5035148;28;20038;-82
2023/06/11 08:07:33;;;;;;;8.70;5.20;;;;;;;31.85;34.07;101409.91;5027607;28;20018;-82
2023/06/11 08:09:58;;;;;;;5.65;4.72;;;;;;;32.03;34.65;101419.84;5041771;28;20032;-82
2023/06/11 08:12:25;;;;;;;7.20;5.07;;;;;;;32.16;33.91;101415.13;5043018;28;20033;-81
2023/06/11 08:14:50;;;;;;;5.18;4.68;;;;;;;32.52;34.48;101415.72;5040262;28;20029;-83
2023/06/11 08:17:16;;;;;;;8.15;5.38;;;;;;;32.58;33.27;101410.06;5039140;28;20026;-82
2023/06/11 08:19:41;;;;;;;10.93;5.20;;;;;;;32.54;33.15;101419.06;5042500;28;20029;-82
2023/06/11 08:22:07;;;;;;;6.82;4.82;;;;;;;32.54;33.39;101417.16;5040588;28;20458;-81
2023/06/11 08:24:32;;;;;;;6.25;5.30;;;;;;;32.52;33.84;101412.97;5031469;28;20162;-82
2023/06/11 08:26:58;;;;;;;7.22;4.85;;;;;;;33.02;33.32;101406.59;5032224;28;20100;-82
2023/06/11 08:29:23;;;;;;;7.50;5.28;;;;;;;32.90;32.20;101412.19;5031430;28;20498;-83
2023/06/11 08:31:50;;;;;;;6.97;4.67;;;;;;;32.97;32.56;101406.50;5035456;28;20078;-83
2023/06/11 08:34:15;;;;;;;7.35;4.70;;;;;;;33.33;32.59;101401.50;5035266;28;20318;-82
2023/06/11 08:36:40;;;;;;;5.87;5.27;;;;;;;33.45;31.59;101396.69;5035974;28;20045;-83
2023/06/11 08:39:06;;;;;;;6.40;5.38;;;;;;;33.76;31.88;101404.47;5029654;28;20334;-82
2023/06/11 08:41:32;;;;;;;9.82;5.47;;;;;;;33.82;31.06;101397.94;5037384;28;20134;-83
2023/06/11 08:43:57;;;;;;;7.88;4.50;;;;;;;33.98;31.11;101393.41;5049957;28;20055;-83
2023/06/11 08:46:23;;;;;;;7.50;5.57;;;;;;;33.68;31.04;101384.59;5037278;28;20018;-81
2023/06/11 08:48:58;;;;;;;5.05;4.53;;;;;;;33.69;31.22;101390.91;5040223;28;20064;-83
2023/06/11 08:51:26;;;;;;;6.57;4.50;;;;;;;33.71;30.57;101375.81;5035117;28;20051;-81
2023/06/11 08:53:52;;;;;;;6.40;5.00;;;;;;;33.89;31.16;101395.78;5036712;28;20072;-83
2023/06/11 08:56:17;;;;;;;4.90;4.07;;;;;;;34.11;30.85;101396.56;5039848;28;20033;-82
2023/06/11 08:58:44;;;;;;;6.87;4.47;;;;;;;33.97;30.08;101389.00;5041064;28;20021;-83
2023/06/11 09:01:10;;;;;;;6.70;4.70;;;;;;;34.08;30.12;101394.31;5039294;28;20036;-83
2023/06/11 09:03:36;;;;;;;11.55;4.60;;;;;;;34.15;30.24;101385.00;5041788;28;20033;-82
2023/06/11 09:06:02;;;;;;;5.40;4.38;;;;;;;34.23;30.31;101379.03;5038835;28;20065;-83
2023/06/11 09:08:28;;;;;;;7.05;4.38;;;;;;;34.29;30.46;101381.56;5027271;28;20024;-82
2023/06/11 09:10:53;;;;;;;4.82;4.38;;;;;;;34.65;30.01;101383.75;5042134;28;20420;-83
2023/06/11 09:13:23;;;;;;;6.57;4.60;;;;;;;34.74;29.80;101381.34;5033763;28;20081;-82
2023/06/11 09:15:52;;;;;;;6.50;4.45;;;;;;;34.77;28.88;101378.88;5032390;28;20075;-82
2023/06/11 09:18:22;;;;;;;10.02;4.70;;;;;;;35.04;29.24;101383.41;5034297;28;20037;-80
2023/06/11 09:20:55;;;;;;;5.32;4.20;;;;;;;35.07;29.21;101384.81;5030492;28;20048;-81
2023/06/11 09:23:31;;;;;;;6.00;4.25;;;;;;;35.10;28.68;101371.31;5036414;28;20017;-82
2023/06/11 09:25:58;;;;;;;4.90;4.40;;;;;;;35.47;28.08;101380.56;5030795;28;20026;-83
2023/06/11 09:28:31;;;;;;;5.38;3.95;;;;;;;35.34;28.03;101380.00;5034077;28;20356;-81
2023/06/11 09:30:58;;;;;;;7.53;4.00;;;;;;;35.21;28.13;101375.75;5031411;28;20067;-82
2023/06/11 09:33:24;;;;;;;6.10;4.40;;;;;;;35.51;28.65;101374.22;5035504;28;20384;-83
2023/06/11 09:35:50;;;;;;;8.15;4.68;;;;;;;35.73;28.31;101373.19;5034011;28;20491;-82
2023/06/11 09:38:17;;;;;;;23.92;5.35;;;;;;;35.52;28.07;101367.63;5027730;28;20112;-82
2023/06/11 09:40:50;;;;;;;18.67;5.30;;;;;;;35.60;28.97;101357.94;5034522;28;20052;-83
2023/06/11 09:43:22;;;;;;;16.42;5.13;;;;;;;35.83;28.40;101381.50;5033973;28;20064;-82
2023/06/11 09:45:52;;;;;;;9.07;4.57;;;;;;;35.80;27.66;101373.75;5034459;28;20029;-82
2023/06/11 09:48:19;;;;;;;6.28;4.30;;;;;;;35.91;27.21;101372.66;5030850;28;20346;-82
2023/06/11 09:50:47;;;;;;;5.00;3.72;;;;;;;35.98;27.24;101374.31;5025569;28;20064;-83
2023/06/11 09:53:14;;;;;;;4.47;4.00;;;;;;;36.01;27.68;101376.53;5030575;28;20042;-83
2023/06/11 09:55:40;;;;;;;5.47;3.88;;;;;;;35.92;26.77;101374.31;5031292;28;20053;-83
2023/06/11 09:58:06;;;;;;;8.02;4.07;;;;;;;36.03;26.49;101380.69;5031199;28;20076;-83
2023/06/11 10:00:33;;;;;;;4.40;4.00;;;;;;;35.75;25.71;101382.84;5033629;28;20395;-82
2023/06/11 10:02:59;;;;;;;4.40;4.00;;;;;;;35.91;26.26;101375.41;5032408;28;20108;-82
2023/06/11 10:05:25;;;;;;;9.18;4.40;;;;;;;35.93;26.86;101378.72;5038367;28;20041;-82
2023/06/11 10:07:55;;;;;;;7.72;4.13;;;;;;;35.98;26.31;101366.03;5035971;28;20033;-83
2023/06/11 10:10:22;;;;;;;4.72;3.72;;;;;;;36.03;25.98;101386.19;5035403;28;20109;-83
2023/06/11 10:12:50;;;;;;;6.13;3.80;;;;;;;35.86;25.22;101380.94;5030654;28;20021;-82
2023/06/11 10:15:16;;;;;;;6.82;3.58;;;;;;;36.03;24.57;101377.91;5037379;28;20075;-82
2023/06/11 10:17:59;;;;;;;4.07;3.60;;;;;;;36.40;25.94;101385.09;5036560;28;20021;-83
2023/06/11 10:20:28;;;;;;;5.60;3.72;;;;;;;36.10;23.98;101385.94;5024774;28;20026;-82
2023/06/11 10:23:06;;;;;;;;;;;;;;;36.54;26.13;101385.38;5031441;28;20029;-82
2023/06/11 10:25:32;;;;;;;5.60;3.60;;;;;;;36.05;24.90;101374.88;5028366;28;19920;-83
2023/06/11 10:27:57;;;;;;;5.93;3.75;;;;;;;35.99;24.99;101364.91;5033649;28;20064;-81
2023/06/11 10:30:24;;;;;;;3.88;3.58;;;;;;;36.07;25.18;101372.66;5032731;28;20021;-82
2023/06/11 10:32:49;;;;;;;6.65;4.03;;;;;;;35.99;24.58;101359.38;5035090;28;20477;-82
2023/06/11 10:35:22;;;;;;;8.45;3.67;;;;;;;36.02;24.96;101361.59;5036416;28;20034;-83
2023/06/11 10:37:47;;;;;;;4.63;3.80;;;;;;;36.02;24.41;101364.34;5036267;28;20087;-82
2023/06/11 10:40:14;;;;;;;5.18;3.80;;;;;;;35.93;25.17;101364.91;5036281;28;20030;-83
2023/06/11 10:42:42;;;;;;;6.72;3.72;;;;;;;36.17;25.42;101361.59;5025786;28;20075;-83
2023/06/11 10:45:13;;;;;;;4.60;3.65;;;;;;;36.16;25.10;101362.72;5036034;28;20376;-83
2023/06/11 10:47:46;;;;;;;4.45;3.63;;;;;;;36.35;25.34;101367.69;5034073;28;20402;-82
2023/06/11 10:50:16;;;;;;;4.20;3.72;;;;;;;36.27;24.54;101361.63;5032538;28;20036;-82
2023/06/11 10:52:48;;;;;;;5.80;3.60;;;;;;;36.44;25.05;101361.31;5031191;28;20136;-82
2023/06/11 10:55:14;;;;;;;6.03;3.78;;;;;;;36.46;24.41;101372.94;5036488;28;20041;-82
2023/06/11 10:57:40;;;;;;;4.85;3.55;;;;;;;36.43;24.81;101362.41;5035355;28;20044;-83
2023/06/11 11:00:09;;;;;;;6.28;3.70;;;;;;;36.22;24.33;101363.53;5037153;28;20379;-82
2023/06/11 11:02:34;;;;;;;;;;;;;;;36.72;25.17;101364.59;5036513;28;20095;-82
2023/06/11 11:04:59;;;;;;;4.83;3.40;;;;;;;36.42;24.72;101368.22;5035317;28;19940;-82
2023/06/11 11:07:33;;;;;;;4.70;3.87;;;;;;;36.38;24.39;101367.97;5030559;28;20304;-82
2023/06/11 11:09:59;;;;;;;7.38;3.40;;;;;;;36.30;23.33;101369.34;5036900;28;20104;-82
2023/06/11 11:12:25;;;;;;;4.05;3.45;;;;;;;36.24;23.73;101364.94;5036853;28;20556;-83
2023/06/11 11:14:50;;;;;;;4.40;3.67;;;;;;;36.10;24.05;101349.97;5035865;28;20036;-82
2023/06/11 11:17:15;;;;;;;4.60;3.40;;;;;;;36.27;24.68;101358.00;5032571;28;20300;-82